Kennebec, South Dakota
Current Conditions -  °F | °C
As of 8:15 AM on Thursday 30 Oct 2014 (Local Time) from K9V9 Reporting Station
Clear Clear  
Wind Chill: 33°   Ceiling: Unl
Heat Index: 41°   Visibility: 10mi
Dew Point: 36°   Wind: 15mph
Humidity: 83%   Direction: 330°NNW
Pressure: 30.12"   Gusts: NA
Location:  43.9°N, 99.86°W
Report Text: K9V9 301315Z AUTO 33013KT 10SM CLR 05/02 A3012 RMK AO2 T00500023
Loading
Personal Weather Stations






























Interactive Weather Map
Tropical Storm Tracking
New forecast layout! Learn more

10-Day Weather Forecast

Advertisements
Track Severe Weather on mobile